createdAt,value
2019-01-27T00:01:29.678Z,4.87
2019-01-27T00:04:00.308Z,4.83
2019-01-27T00:06:34.008Z,4.80
2019-01-27T00:09:07.731Z,4.80
2019-01-27T00:11:38.315Z,4.80
2019-01-27T00:14:08.935Z,4.88
2019-01-27T00:16:39.583Z,4.87
2019-01-27T00:19:13.262Z,4.89
2019-01-27T00:21:43.896Z,4.87
2019-01-27T00:24:14.608Z,4.89
2019-01-27T00:26:45.185Z,4.98
2019-01-27T00:29:16.969Z,4.92
2019-01-27T00:31:47.540Z,4.95
2019-01-27T00:34:18.135Z,4.91
2019-01-27T00:36:48.736Z,4.91
2019-01-27T00:39:19.376Z,4.86
2019-01-27T00:41:49.978Z,4.84
2019-01-27T00:44:20.554Z,4.81
2019-01-27T00:46:51.223Z,4.89
2019-01-27T00:49:21.762Z,4.82
2019-01-27T00:51:52.379Z,4.80
2019-01-27T00:54:23.063Z,4.83
2019-01-27T00:56:53.732Z,4.84
2019-01-27T00:59:25.134Z,4.81
2019-01-27T01:01:55.716Z,4.91
2019-01-27T01:04:26.272Z,4.83
2019-01-27T01:06:56.939Z,4.81
2019-01-27T01:09:27.627Z,4.85
2019-01-27T01:11:59.100Z,4.84
2019-01-27T01:14:29.740Z,4.81
2019-01-27T01:17:00.298Z,4.75
2019-01-27T01:19:30.867Z,4.80
2019-01-27T01:22:01.719Z,4.83
2019-01-27T01:24:32.371Z,4.83
2019-01-27T01:27:02.958Z,4.79
2019-01-27T01:29:33.564Z,4.77
2019-01-27T01:32:04.203Z,4.82
2019-01-27T01:34:34.880Z,4.86
2019-01-27T01:37:05.588Z,4.86
2019-01-27T01:39:36.202Z,4.93
2019-01-27T01:42:06.782Z,4.92
2019-01-27T01:44:37.365Z,4.97
2019-01-27T01:47:07.923Z,4.93
2019-01-27T01:49:38.506Z,4.98
2019-01-27T01:52:09.083Z,4.94
2019-01-27T01:54:39.721Z,4.97
2019-01-27T01:57:10.262Z,5.02
2019-01-27T01:59:40.874Z,4.99
2019-01-27T02:02:11.465Z,5.02
2019-01-27T02:04:42.040Z,4.95
2019-01-27T02:07:12.668Z,4.97
2019-01-27T02:09:43.204Z,5.02
2019-01-27T02:12:13.870Z,4.98
2019-01-27T02:14:44.524Z,5.01
2019-01-27T02:17:15.119Z,5.05
2019-01-27T02:19:45.691Z,5.06
2019-01-27T02:22:16.282Z,5.03
2019-01-27T02:24:46.932Z,5.04
2019-01-27T02:27:17.531Z,5.03
2019-01-27T02:29:48.173Z,5.03
2019-01-27T02:32:18.771Z,5.03
2019-01-27T02:34:49.375Z,5.05
2019-01-27T02:37:20.035Z,5.05
2019-01-27T02:39:50.702Z,5.01
2019-01-27T02:42:21.237Z,4.99
2019-01-27T02:44:51.914Z,4.99
2019-01-27T02:47:22.479Z,4.95
2019-01-27T02:49:53.062Z,4.94
2019-01-27T02:52:23.670Z,5.00
2019-01-27T02:54:54.240Z,5.03
2019-01-27T02:57:24.877Z,5.04
2019-01-27T02:59:55.551Z,5.03
2019-01-27T03:02:26.141Z,5.03
2019-01-27T03:04:58.418Z,5.03
2019-01-27T03:07:34.784Z,4.99
2019-01-27T03:10:08.548Z,5.06
2019-01-27T03:12:39.197Z,5.05
2019-01-27T03:15:10.828Z,4.96
2019-01-27T03:17:41.406Z,4.97
2019-01-27T03:20:12.376Z,5.09
2019-01-27T03:22:43.030Z,5.00
2019-01-27T03:25:13.851Z,5.06
2019-01-27T03:27:44.456Z,5.04
2019-01-27T03:30:18.013Z,4.99
2019-01-27T03:32:48.513Z,5.03
2019-01-27T03:35:19.198Z,5.02
2019-01-27T03:37:49.775Z,4.94
2019-01-27T03:40:20.677Z,5.01
2019-01-27T03:42:51.149Z,4.97
2019-01-27T03:45:21.647Z,4.96
2019-01-27T03:47:52.174Z,4.96
2019-01-27T03:50:22.914Z,4.95
2019-01-27T03:52:53.347Z,4.95
2019-01-27T03:55:23.862Z,4.99
2019-01-27T03:57:54.380Z,4.97
2019-01-27T04:00:24.963Z,4.96
2019-01-27T04:02:55.426Z,4.92
2019-01-27T04:05:25.962Z,4.91
2019-01-27T04:07:56.456Z,4.89
2019-01-27T04:10:26.961Z,5.01
2019-01-27T04:12:57.516Z,4.92
2019-01-27T04:15:27.973Z,4.92
2019-01-27T04:17:58.597Z,4.92
2019-01-27T04:20:29.103Z,4.86
2019-01-27T04:22:59.783Z,4.89
2019-01-27T04:25:30.232Z,4.88
2019-01-27T04:28:00.749Z,4.89
2019-01-27T04:30:33.540Z,4.87
2019-01-27T04:33:04.127Z,4.86
2019-01-27T04:35:34.610Z,4.84
2019-01-27T04:38:05.092Z,4.83
2019-01-27T04:40:35.560Z,4.94
2019-01-27T04:43:06.094Z,4.82
2019-01-27T04:45:37.817Z,4.73
2019-01-27T04:48:09.507Z,4.79
2019-01-27T04:50:39.983Z,4.82
2019-01-27T04:53:10.479Z,4.74
2019-01-27T04:55:40.955Z,4.78
2019-01-27T04:58:11.466Z,4.73
2019-01-27T05:00:41.914Z,4.64
2019-01-27T05:03:40.087Z,4.67
2019-01-27T05:06:10.557Z,4.70
2019-01-27T05:08:41.022Z,4.66
2019-01-27T05:11:11.550Z,4.64
2019-01-27T05:13:42.009Z,4.64
2019-01-27T05:16:12.432Z,4.56
2019-01-27T05:18:42.933Z,4.60
2019-01-27T05:21:13.601Z,4.59
2019-01-27T05:23:44.124Z,4.52
2019-01-27T05:26:14.579Z,4.61
2019-01-27T05:28:45.042Z,4.54
2019-01-27T05:31:15.495Z,4.46
2019-01-27T05:33:45.951Z,4.51
2019-01-27T05:36:16.399Z,4.41
2019-01-27T05:38:46.886Z,4.47
2019-01-27T05:41:17.462Z,4.48
2019-01-27T05:43:47.872Z,4.51
2019-01-27T05:46:18.457Z,4.40
2019-01-27T05:48:48.926Z,4.48
2019-01-27T05:51:19.411Z,4.43
2019-01-27T05:53:49.937Z,4.35
2019-01-27T05:56:20.427Z,4.32
2019-01-27T05:58:50.883Z,4.31
2019-01-27T06:01:21.375Z,4.40
2019-01-27T06:03:51.849Z,4.35
2019-01-27T06:06:22.316Z,4.26
2019-01-27T06:08:52.774Z,4.26
2019-01-27T06:11:23.251Z,4.28
2019-01-27T06:13:53.703Z,4.30
2019-01-27T06:16:24.162Z,4.31
2019-01-27T06:18:54.658Z,4.24
2019-01-27T06:21:25.139Z,4.23
2019-01-27T06:23:55.657Z,4.24
2019-01-27T06:26:26.127Z,4.22
2019-01-27T06:28:56.606Z,4.24
2019-01-27T06:31:27.054Z,4.29
2019-01-27T06:34:04.106Z,4.26
2019-01-27T06:36:34.570Z,4.28
2019-01-27T06:39:07.866Z,4.26
2019-01-27T06:41:38.365Z,4.27
2019-01-27T06:44:09.098Z,4.29
2019-01-27T06:46:39.584Z,4.33
2019-01-27T06:49:10.157Z,4.27
2019-01-27T06:51:40.613Z,4.22
2019-01-27T06:54:11.209Z,4.27
2019-01-27T06:56:41.779Z,4.30
2019-01-27T06:59:29.657Z,4.23
2019-01-27T07:02:29.546Z,4.24
2019-01-27T07:05:04.982Z,4.29
2019-01-27T07:07:54.411Z,4.23
2019-01-27T07:10:42.524Z,4.20
2019-01-27T07:13:28.398Z,4.23
2019-01-27T07:16:07.622Z,4.26
2019-01-27T07:18:55.573Z,4.25
2019-01-27T07:21:34.051Z,4.34
2019-01-27T07:24:26.737Z,4.25
2019-01-27T07:27:14.564Z,4.25
2019-01-27T07:30:02.462Z,4.26
2019-01-27T07:32:50.165Z,4.24
2019-01-27T07:35:57.767Z,4.27
2019-01-27T07:38:37.542Z,4.30
2019-01-27T07:41:26.920Z,4.26
2019-01-27T07:44:19.331Z,4.41
2019-01-27T07:46:58.587Z,4.36
2019-01-27T07:50:03.235Z,4.39
2019-01-27T07:52:52.567Z,4.33
2019-01-27T07:55:44.731Z,4.53
2019-01-27T07:58:25.495Z,4.44
2019-01-27T08:01:17.607Z,4.39
2019-01-27T08:04:13.210Z,4.38
2019-01-27T08:06:54.157Z,4.43
2019-01-27T08:09:31.400Z,4.49
2019-01-27T08:12:25.201Z,4.45
2019-01-27T08:15:14.613Z,4.63
2019-01-27T08:17:55.341Z,4.52
2019-01-27T08:20:44.893Z,4.52
2019-01-27T08:23:40.208Z,4.46
2019-01-27T08:26:29.596Z,4.47
2019-01-27T08:29:18.962Z,4.59
2019-01-27T08:32:14.425Z,4.65
2019-01-27T08:34:54.865Z,4.59
2019-01-27T08:37:42.731Z,4.71
2019-01-27T08:40:45.645Z,4.66
2019-01-27T08:43:33.751Z,4.47
2019-01-27T08:46:16.118Z,4.65
2019-01-27T08:48:46.603Z,4.63
2019-01-27T08:51:17.094Z,4.54
2019-01-27T08:53:47.543Z,4.72
2019-01-27T08:56:18.121Z,4.65
2019-01-27T08:58:48.575Z,4.65
2019-01-27T09:01:45.798Z,4.67
2019-01-27T09:04:23.648Z,4.68
2019-01-27T09:07:13.061Z,4.68
2019-01-27T09:10:05.218Z,4.71
2019-01-27T09:12:54.626Z,4.81
2019-01-27T09:15:42.483Z,4.91
2019-01-27T09:18:34.903Z,4.88
2019-01-27T09:21:30.505Z,4.89
2019-01-27T09:24:35.055Z,4.84
2019-01-27T09:27:25.139Z,4.90
2019-01-27T09:30:08.783Z,5.08
2019-01-27T09:33:03.059Z,5.08
2019-01-27T09:36:07.353Z,5.01
2019-01-27T09:38:50.061Z,4.93
2019-01-27T09:41:39.538Z,4.96
2019-01-27T09:44:37.902Z,4.98
2019-01-27T09:47:36.292Z,5.11
2019-01-27T09:50:30.674Z,5.04
2019-01-27T09:53:09.296Z,5.15
2019-01-27T09:55:58.888Z,5.10
2019-01-27T09:58:43.354Z,5.04
2019-01-27T10:01:36.016Z,5.08
2019-01-27T10:04:21.907Z,5.21
2019-01-27T10:07:29.861Z,5.23
2019-01-27T10:10:19.285Z,5.33
2019-01-27T10:13:20.696Z,5.24
2019-01-27T10:16:16.298Z,5.22
2019-01-27T10:19:03.163Z,5.24
2019-01-27T10:21:51.155Z,5.27
2019-01-27T10:24:40.243Z,5.32
2019-01-27T10:27:19.308Z,5.40
2019-01-27T10:30:26.937Z,5.40
2019-01-27T10:33:28.399Z,5.47
2019-01-27T10:36:20.868Z,5.60
2019-01-27T10:39:10.259Z,5.66
2019-01-27T10:41:45.858Z,5.70
2019-01-27T10:44:34.906Z,5.67
2019-01-27T10:47:24.496Z,5.64
2019-01-27T10:50:06.675Z,5.72
2019-01-27T10:52:50.426Z,5.70
2019-01-27T10:55:40.301Z,5.63
2019-01-27T10:58:21.710Z,5.73
2019-01-27T11:01:09.754Z,5.74
2019-01-27T11:03:51.998Z,5.68
2019-01-27T11:06:47.371Z,5.65
2019-01-27T11:09:45.689Z,5.60
2019-01-27T11:12:30.555Z,5.57
2019-01-27T11:18:39.329Z,5.53
2019-01-27T11:21:16.434Z,5.56
2019-01-27T11:24:11.813Z,5.57
2019-01-27T11:26:59.856Z,5.58
2019-01-27T11:29:52.959Z,5.63
2019-01-27T11:32:35.241Z,5.59
2019-01-27T11:35:30.243Z,5.54
2019-01-27T11:38:20.104Z,5.59
2019-01-27T11:41:27.746Z,5.63
2019-01-27T11:44:20.488Z,5.65
2019-01-27T11:47:08.497Z,5.69
2019-01-27T11:49:53.157Z,5.62
2019-01-27T11:52:33.594Z,5.69
2019-01-27T11:55:04.319Z,5.72
2019-01-27T11:57:35.758Z,5.74
2019-01-27T12:00:11.485Z,5.71
2019-01-27T12:02:46.681Z,5.80
2019-01-27T12:05:16.121Z,5.87
2019-01-27T12:07:46.966Z,5.87
2019-01-27T12:10:21.563Z,5.97
2019-01-27T12:12:52.832Z,5.99
2019-01-27T12:15:24.212Z,5.97
2019-01-27T12:17:55.355Z,5.90
2019-01-27T12:20:26.105Z,5.95
2019-01-27T12:22:57.039Z,5.99
2019-01-27T12:25:27.901Z,6.00
2019-01-27T12:27:58.604Z,5.98
2019-01-27T12:30:37.191Z,5.91
2019-01-27T12:33:08.409Z,5.92
2019-01-27T12:35:39.469Z,5.93
2019-01-27T12:38:10.334Z,5.99
2019-01-27T12:40:41.041Z,5.93
2019-01-27T12:43:12.303Z,5.94
2019-01-27T12:45:43.167Z,5.97
2019-01-27T12:48:14.130Z,5.94
2019-01-27T12:50:52.993Z,5.94
2019-01-27T12:53:25.532Z,5.88
2019-01-27T12:55:57.023Z,5.95
2019-01-27T12:58:28.065Z,5.95
2019-01-27T13:01:11.161Z,6.03
2019-01-27T13:03:42.596Z,6.03
2019-01-27T13:06:14.128Z,6.01
2019-01-27T13:08:45.418Z,6.04
2019-01-27T13:11:16.046Z,6.02
2019-01-27T13:13:46.837Z,6.03
2019-01-27T13:16:17.733Z,6.07
2019-01-27T13:18:49.076Z,6.04
2019-01-27T13:21:19.895Z,6.06
2019-01-27T13:23:50.797Z,6.05
2019-01-27T13:26:21.346Z,6.02
2019-01-27T13:28:52.998Z,6.03
2019-01-27T13:31:25.088Z,6.05
2019-01-27T13:33:55.637Z,6.02
2019-01-27T13:36:26.228Z,6.09
2019-01-27T13:38:56.954Z,6.07
2019-01-27T13:41:27.695Z,6.02
2019-01-27T13:44:01.855Z,5.97
2019-01-27T13:46:32.730Z,6.00
2019-01-27T13:49:04.110Z,6.06
2019-01-27T13:51:35.344Z,6.04
2019-01-27T13:54:06.065Z,6.01
2019-01-27T13:56:36.607Z,6.02
2019-01-27T13:59:07.425Z,6.02
2019-01-27T14:01:38.010Z,6.02
2019-01-27T14:04:08.672Z,5.95
2019-01-27T14:06:39.383Z,6.00
2019-01-27T14:09:13.951Z,6.00
2019-01-27T14:11:44.536Z,5.99
2019-01-27T14:14:16.009Z,5.96
2019-01-27T14:16:46.521Z,5.92
2019-01-27T14:19:17.109Z,5.91
2019-01-27T14:21:47.628Z,5.89
2019-01-27T14:24:18.209Z,5.87
2019-01-27T14:26:48.840Z,5.88
2019-01-27T14:29:19.577Z,5.95
2019-01-27T14:31:50.145Z,5.88
2019-01-27T14:34:20.731Z,5.93
2019-01-27T14:36:51.377Z,5.92
2019-01-27T14:39:22.067Z,5.92
2019-01-27T14:41:52.829Z,5.90
2019-01-27T14:44:23.434Z,5.92
2019-01-27T14:46:54.168Z,5.89
2019-01-27T14:49:24.797Z,5.89
2019-01-27T14:51:55.443Z,5.90
2019-01-27T14:54:26.146Z,5.89
2019-01-27T14:56:56.759Z,5.93
2019-01-27T14:59:27.755Z,5.92
2019-01-27T15:02:10.232Z,5.88
2019-01-27T15:04:40.882Z,5.84
2019-01-27T15:07:11.823Z,5.89
2019-01-27T15:09:46.554Z,5.84
2019-01-27T15:12:17.054Z,5.85
2019-01-27T15:14:51.512Z,5.88
2019-01-27T15:17:22.101Z,5.81
2019-01-27T15:19:52.694Z,5.93
2019-01-27T15:22:24.022Z,5.84
2019-01-27T15:24:54.794Z,5.78
2019-01-27T15:27:25.446Z,5.78
2019-01-27T15:29:56.091Z,5.86
2019-01-27T15:32:26.672Z,5.85
2019-01-27T15:34:57.177Z,5.82
2019-01-27T15:37:27.792Z,5.79
2019-01-27T15:40:17.399Z,5.84
2019-01-27T15:42:47.893Z,5.82
2019-01-27T15:45:24.931Z,5.85
2019-01-27T15:47:55.518Z,5.86
2019-01-27T15:50:31.502Z,5.87
2019-01-27T15:53:02.084Z,5.82
2019-01-27T15:55:32.620Z,5.85
2019-01-27T15:58:03.944Z,5.76
2019-01-27T16:00:34.513Z,5.83
2019-01-27T16:03:05.195Z,5.82
2019-01-27T16:05:35.718Z,5.78
2019-01-27T16:08:06.506Z,5.81
2019-01-27T16:10:37.019Z,5.76
2019-01-27T16:13:07.546Z,5.79
2019-01-27T16:15:38.211Z,5.75
2019-01-27T16:18:08.857Z,5.81
2019-01-27T16:20:39.384Z,5.79
2019-01-27T16:23:17.602Z,5.86
2019-01-27T16:25:48.159Z,5.82
2019-01-27T16:28:18.690Z,5.75
2019-01-27T16:31:06.840Z,5.70
2019-01-27T16:33:43.415Z,5.73
2019-01-27T16:36:13.934Z,5.74
2019-01-27T16:38:44.428Z,5.76
2019-01-27T16:41:15.022Z,5.74
2019-01-27T16:43:45.539Z,5.69
2019-01-27T16:46:16.043Z,5.63
2019-01-27T16:48:46.580Z,5.76
2019-01-27T16:51:17.160Z,5.80
2019-01-27T16:53:47.717Z,5.79
2019-01-27T16:56:18.240Z,5.77
2019-01-27T16:58:48.830Z,5.75
2019-01-27T17:01:19.584Z,5.72
2019-01-27T17:03:50.139Z,5.73
2019-01-27T17:06:20.828Z,5.67
2019-01-27T17:08:51.351Z,5.71
2019-01-27T17:11:22.001Z,5.69
2019-01-27T17:13:53.771Z,5.72
2019-01-27T17:16:24.347Z,5.70
2019-01-27T17:18:55.688Z,5.62
2019-01-27T17:21:26.319Z,5.58
2019-01-27T17:23:56.799Z,5.64
2019-01-27T17:26:27.347Z,5.62
2019-01-27T17:28:57.839Z,5.66
2019-01-27T17:31:28.375Z,5.64
2019-01-27T17:33:58.885Z,5.64
2019-01-27T17:36:29.471Z,5.61
2019-01-27T17:39:00.024Z,5.58
2019-01-27T17:41:30.704Z,5.58
2019-01-27T17:44:01.239Z,5.59
2019-01-27T17:46:31.746Z,5.55
2019-01-27T17:49:02.303Z,5.56
2019-01-27T17:51:32.968Z,5.51
2019-01-27T17:54:06.313Z,5.54
2019-01-27T17:56:36.923Z,5.56
2019-01-27T17:59:32.481Z,5.56
2019-01-27T18:02:28.115Z,5.54
2019-01-27T18:05:13.027Z,5.56
2019-01-27T18:08:06.287Z,5.56
2019-01-27T18:10:55.799Z,5.57
2019-01-27T18:13:38.847Z,5.60
2019-01-27T18:16:13.346Z,5.53
2019-01-27T18:18:44.365Z,5.50
2019-01-27T18:21:14.906Z,5.52
2019-01-27T18:23:46.475Z,5.48
2019-01-27T18:26:17.472Z,5.49
2019-01-27T18:28:51.845Z,5.51
2019-01-27T18:31:20.512Z,5.44
2019-01-27T18:33:51.191Z,5.53
2019-01-27T18:36:21.775Z,5.53
2019-01-27T18:38:52.414Z,5.58
2019-01-27T18:41:23.096Z,5.52
2019-01-27T18:43:53.779Z,5.51
2019-01-27T18:46:24.352Z,5.46
2019-01-27T18:48:55.159Z,5.43
2019-01-27T18:51:25.836Z,5.40
2019-01-27T18:54:19.457Z,5.43
2019-01-27T18:57:11.916Z,5.46
2019-01-27T19:00:02.224Z,5.42
2019-01-27T19:02:51.693Z,5.42
2019-01-27T19:05:31.323Z,5.48
2019-01-27T19:08:33.076Z,5.44
2019-01-27T19:11:28.737Z,5.49
2019-01-27T19:14:18.340Z,5.38
2019-01-27T19:17:16.711Z,5.48
2019-01-27T19:20:07.082Z,5.43
2019-01-27T19:22:56.610Z,5.36
2019-01-27T19:25:34.743Z,5.40
2019-01-27T19:28:20.111Z,5.40
2019-01-27T19:31:18.277Z,5.38
2019-01-27T19:34:05.512Z,5.38
2019-01-27T19:37:01.334Z,5.41
2019-01-27T19:40:00.207Z,5.33
2019-01-27T19:42:49.676Z,5.31
2019-01-27T19:45:37.171Z,5.32
2019-01-27T19:48:25.246Z,5.36
2019-01-27T19:51:13.452Z,5.33
2019-01-27T19:54:06.035Z,5.35
2019-01-27T19:57:01.721Z,5.32
2019-01-27T19:59:52.886Z,5.28
2019-01-27T20:02:33.727Z,5.19
2019-01-27T20:05:25.089Z,5.23
2019-01-27T20:08:06.408Z,5.14
2019-01-27T20:11:04.898Z,5.12
2019-01-27T20:13:54.463Z,5.06
2019-01-27T20:16:35.987Z,5.09
2019-01-27T20:19:18.388Z,5.07
2019-01-27T20:22:07.914Z,4.98
2019-01-27T20:25:09.675Z,4.96
2019-01-27T20:28:04.399Z,4.98
2019-01-27T20:30:48.901Z,4.93
2019-01-27T20:33:47.402Z,4.90
2019-01-27T20:36:45.940Z,4.86
2019-01-27T20:39:24.163Z,4.84
2019-01-27T20:42:03.168Z,4.89
2019-01-27T20:44:55.727Z,4.85
2019-01-27T20:47:43.708Z,4.83
2019-01-27T20:50:20.595Z,4.80
2019-01-27T20:52:59.893Z,4.78
2019-01-27T20:55:49.503Z,4.80
2019-01-27T20:58:27.704Z,4.83
2019-01-27T21:01:19.932Z,4.76
2019-01-27T21:04:09.381Z,4.74
2019-01-27T21:06:57.216Z,4.84
2019-01-27T21:09:38.104Z,4.80
2019-01-27T21:12:18.857Z,4.86
2019-01-27T21:15:02.903Z,4.80
2019-01-27T21:17:40.197Z,4.75
2019-01-27T21:20:14.858Z,4.75
2019-01-27T21:22:45.454Z,4.79
2019-01-27T21:25:16.178Z,4.76
2019-01-27T21:27:46.861Z,4.75
2019-01-27T21:30:18.366Z,4.70
2019-01-27T21:32:48.910Z,4.66
2019-01-27T21:35:19.588Z,4.64
2019-01-27T21:37:50.081Z,4.65
2019-01-27T21:40:21.591Z,4.57
2019-01-27T21:42:52.143Z,4.55
2019-01-27T21:45:23.356Z,4.53
2019-01-27T21:47:53.926Z,4.55
2019-01-27T21:50:24.591Z,4.50
2019-01-27T21:52:55.140Z,4.41
2019-01-27T21:55:25.678Z,4.44
2019-01-27T21:57:56.237Z,4.40
2019-01-27T22:00:26.815Z,4.36
2019-01-27T22:02:57.324Z,4.31
2019-01-27T22:05:27.902Z,4.35
2019-01-27T22:07:58.421Z,4.26
2019-01-27T22:10:29.050Z,4.29
2019-01-27T22:12:59.580Z,4.28
2019-01-27T22:15:30.116Z,4.29
2019-01-27T22:18:00.679Z,4.21
2019-01-27T22:20:31.356Z,4.07
2019-01-27T22:23:01.900Z,4.06
2019-01-27T22:25:32.427Z,3.98
2019-01-27T22:28:03.023Z,3.91
2019-01-27T22:30:33.524Z,3.90
2019-01-27T22:33:04.679Z,3.88
2019-01-27T22:35:35.232Z,3.85
2019-01-27T22:38:05.994Z,3.72
2019-01-27T22:40:36.529Z,3.76
2019-01-27T22:43:07.100Z,3.66
2019-01-27T22:45:37.597Z,3.64
2019-01-27T22:48:08.123Z,3.64
2019-01-27T22:50:38.651Z,3.59
2019-01-27T22:53:09.230Z,3.50
2019-01-27T22:55:39.753Z,3.47
2019-01-27T22:58:10.292Z,3.48
2019-01-27T23:01:03.339Z,3.55
2019-01-27T23:03:45.779Z,3.43
2019-01-27T23:06:16.284Z,3.34
2019-01-27T23:08:46.780Z,3.33
2019-01-27T23:11:17.346Z,3.32
2019-01-27T23:13:47.854Z,3.27
2019-01-27T23:16:18.370Z,3.27
2019-01-27T23:18:49.005Z,3.35
2019-01-27T23:21:19.570Z,3.32
2019-01-27T23:23:50.113Z,3.41
2019-01-27T23:26:20.690Z,3.38
2019-01-27T23:28:51.189Z,3.43
2019-01-27T23:31:21.739Z,3.40
2019-01-27T23:33:52.379Z,3.37
2019-01-27T23:36:23.742Z,3.37
2019-01-27T23:38:54.319Z,3.41
2019-01-27T23:41:24.888Z,3.38
2019-01-27T23:43:55.420Z,3.34
2019-01-27T23:46:25.886Z,3.36
2019-01-27T23:48:56.470Z,3.37
2019-01-27T23:51:27.011Z,3.36
2019-01-27T23:53:57.520Z,3.41
2019-01-27T23:56:28.053Z,3.40
2019-01-27T23:58:58.528Z,3.40
